Time,TemperatureF,DewpointF,PressureIn,WindDirection,WindDirectionDegrees,WindSpeedMPH,WindSpeedGustMPH,Humidity,HourlyPrecipIn,Conditions,Clouds,dailyrainin,SolarRadiationWatts/m^2,SoftwareType,DateUTC
2013-04-07 00:00:00,39.3,29.6,30.15,WNW,289,0.0,0.0,68,0.00,,,0.00,0,Wunderground v.1.15,2013-04-07 04:00:00,
2013-04-07 00:02:00,39.3,30.7,30.15,WNW,291,0.0,0.0,71,0.00,,,0.00,0,Wunderground v.1.15,2013-04-07 04:02:00,
2013-04-07 00:03:00,39.3,30.7,30.15,WNW,288,0.0,0.0,71,0.00,,,0.00,0,Wunderground v.1.15,2013-04-07 04:03:00,
2013-04-07 00:08:00,39.2,30.9,30.15,WNW,289,0.0,0.0,72,0.00,,,0.00,0,Wunderground v.1.15,2013-04-07 04:08:00,
2013-04-07 00:09:00,39.2,30.9,30.15,WNW,290,0.0,0.0,72,0.00,,,0.00,0,Wunderground v.1.15,2013-04-07 04:09:00,
2013-04-07 00:15:00,39.1,30.5,30.15,WNW,289,0.0,0.0,71,0.00,,,0.00,0,Wunderground v.1.15,2013-04-07 04:15:00,
2013-04-07 00:20:00,39.1,30.5,30.15,WNW,290,0.0,0.0,71,0.00,,,0.00,0,Wunderground v.1.15,2013-04-07 04:20:00,
2013-04-07 00:25:00,39.0,31.1,30.14,WNW,290,0.0,0.0,73,0.00,,,0.00,0,Wunderground v.1.15,2013-04-07 04:25:00,
2013-04-07 00:30:00,38.9,31.0,30.14,WNW,288,0.0,0.0,73,0.00,,,0.00,0,Wunderground v.1.15,2013-04-07 04:30:00,
2013-04-07 00:35:00,38.7,30.1,30.14,WNW,290,0.0,2.0,71,0.00,,,0.00,0,Wunderground v.1.15,2013-04-07 04:35:00,
2013-04-07 00:40:00,38.6,30.0,30.14,WNW,290,1.0,2.0,71,0.00,,,0.00,0,Wunderground v.1.15,2013-04-07 04:40:00,
2013-04-07 00:45:00,38.4,29.5,30.14,WNW,289,2.0,2.0,70,0.00,,,0.00,0,Wunderground v.1.15,2013-04-07 04:45:00,
2013-04-07 00:51:00,38.4,30.2,30.14,WNW,287,1.0,2.0,72,0.00,,,0.00,0,Wunderground v.1.15,2013-04-07 04:51:00,
2013-04-07 00:56:00,38.4,30.8,30.13,WNW,289,1.0,2.0,74,0.00,,,0.00,0,Wunderground v.1.15,2013-04-07 04:56:00,
2013-04-07 01:02:00,38.4,31.2,30.13,WNW,289,1.0,1.0,75,0.00,,,0.00,0,Wunderground v.1.15,2013-04-07 05:02:00,
2013-04-07 01:07:00,38.4,31.8,30.13,WNW,290,0.0,1.0,77,0.00,,,0.00,0,Wunderground v.1.15,2013-04-07 05:07:00,
2013-04-07 01:13:00,38.2,31.6,30.13,WNW,290,0.0,0.0,77,0.00,,,0.00,0,Wunderground v.1.15,2013-04-07 05:13:00,
2013-04-07 01:18:00,38.1,31.2,30.13,WNW,289,0.0,0.0,76,0.00,,,0.00,0,Wunderground v.1.15,2013-04-07 05:18:00,
2013-04-07 01:24:00,38.0,30.8,30.13,WNW,290,0.0,0.0,75,0.00,,,0.00,0,Wunderground v.1.15,2013-04-07 05:24:00,
2013-04-07 01:29:00,37.9,30.7,30.13,WNW,288,0.0,0.0,75,0.00,,,0.00,0,Wunderground v.1.15,2013-04-07 05:29:00,
2013-04-07 01:35:00,37.9,31.0,30.12,WNW,290,0.0,0.0,76,0.00,,,0.00,0,Wunderground v.1.15,2013-04-07 05:35:00,
2013-04-07 01:40:00,38.0,30.4,30.12,WNW,290,0.0,0.0,74,0.00,,,0.00,0,Wunderground v.1.15,2013-04-07 05:40:00,
2013-04-07 01:45:00,38.1,31.2,30.13,WNW,290,0.0,1.0,76,0.00,,,0.00,0,Wunderground v.1.15,2013-04-07 05:45:00,
2013-04-07 01:51:00,38.1,30.9,30.12,WNW,288,0.0,0.0,75,0.00,,,0.00,0,Wunderground v.1.15,2013-04-07 05:51:00,
2013-04-07 01:56:00,38.2,30.6,30.12,WNW,291,0.0,0.0,74,0.00,,,0.00,0,Wunderground v.1.15,2013-04-07 05:56:00,
2013-04-07 02:01:00,38.3,30.1,30.12,WNW,290,0.0,0.0,72,0.00,,,0.00,0,Wunderground v.1.15,2013-04-07 06:01:00,
2013-04-07 02:07:00,38.4,31.2,30.12,WNW,288,0.0,0.0,75,0.00,,,0.00,0,Wunderground v.1.15,2013-04-07 06:07:00,
2013-04-07 02:12:00,38.5,32.2,30.12,WNW,288,0.0,0.0,78,0.00,,,0.00,0,Wunderground v.1.15,2013-04-07 06:12:00,
2013-04-07 02:17:00,38.5,32.6,30.11,WNW,291,0.0,0.0,79,0.00,,,0.00,0,Wunderground v.1.15,2013-04-07 06:17:00,
2013-04-07 02:23:00,38.5,31.9,30.11,WNW,290,0.0,0.0,77,0.00,,,0.00,0,Wunderground v.1.15,2013-04-07 06:23:00,
2013-04-07 02:29:00,38.5,32.6,30.11,WNW,294,0.0,0.0,79,0.00,,,0.00,0,Wunderground v.1.15,2013-04-07 06:29:00,
2013-04-07 02:34:00,38.5,31.9,30.11,WNW,287,0.0,0.0,77,0.00,,,0.00,0,Wunderground v.1.15,2013-04-07 06:34:00,
2013-04-07 02:39:00,38.6,32.6,30.11,WNW,289,0.0,1.0,79,0.00,,,0.00,0,Wunderground v.1.15,2013-04-07 06:39:00,
2013-04-07 02:45:00,38.6,32.3,30.11,WNW,291,0.0,1.0,78,0.00,,,0.00,0,Wunderground v.1.15,2013-04-07 06:45:00,
2013-04-07 02:50:00,38.6,32.6,30.11,WNW,288,0.0,1.0,79,0.00,,,0.00,0,Wunderground v.1.15,2013-04-07 06:50:00,
2013-04-07 02:56:00,38.6,33.0,30.11,WNW,289,0.0,1.0,80,0.00,,,0.00,0,Wunderground v.1.15,2013-04-07 06:56:00,
2013-04-07 03:01:00,38.6,32.6,30.11,WNW,290,0.0,1.0,79,0.00,,,0.00,0,Wunderground v.1.15,2013-04-07 07:01:00,
2013-04-07 03:07:00,38.7,32.7,30.11,North,5,1.0,4.0,79,0.00,,,0.00,0,Wunderground v.1.15,2013-04-07 07:07:00,
2013-04-07 03:13:00,38.8,32.2,30.11,NNE,27,2.0,4.0,77,0.00,,,0.00,0,Wunderground v.1.15,2013-04-07 07:13:00,
2013-04-07 03:18:00,38.9,32.0,30.11,NNE,29,2.0,4.0,76,0.00,,,0.00,0,Wunderground v.1.15,2013-04-07 07:18:00,
2013-04-07 03:24:00,38.9,32.3,30.11,NNE,27,1.0,2.0,77,0.00,,,0.00,0,Wunderground v.1.15,2013-04-07 07:24:00,
2013-04-07 03:29:00,38.9,32.3,30.11,NNE,27,1.0,3.0,77,0.00,,,0.00,0,Wunderground v.1.15,2013-04-07 07:29:00,
2013-04-07 03:34:00,39.0,33.4,30.11,NNE,26,2.0,4.0,80,0.00,,,0.00,0,Wunderground v.1.15,2013-04-07 07:34:00,
2013-04-07 03:39:00,39.1,33.1,30.11,NE,45,3.0,5.0,79,0.00,,,0.00,0,Wunderground v.1.15,2013-04-07 07:39:00,
2013-04-07 03:45:00,39.2,33.5,30.10,NE,46,2.0,2.0,80,0.00,,,0.00,0,Wunderground v.1.15,2013-04-07 07:45:00,
2013-04-07 03:51:00,39.3,33.0,30.10,NE,44,1.0,2.0,78,0.00,,,0.00,0,Wunderground v.1.15,2013-04-07 07:51:00,
2013-04-07 03:56:00,39.3,33.6,30.10,NE,45,1.0,2.0,80,0.00,,,0.00,0,Wunderground v.1.15,2013-04-07 07:56:00,
2013-04-07 04:01:00,39.1,33.1,30.10,NE,46,1.0,2.0,79,0.00,,,0.00,0,Wunderground v.1.15,2013-04-07 08:01:00,
2013-04-07 04:07:00,39.0,33.0,30.10,NE,45,1.0,2.0,79,0.00,,,0.00,0,Wunderground v.1.15,2013-04-07 08:07:00,
2013-04-07 04:13:00,38.9,32.6,30.10,NE,46,0.0,0.0,78,0.00,,,0.00,0,Wunderground v.1.15,2013-04-07 08:13:00,
2013-04-07 04:19:00,38.8,33.5,30.10,NE,43,0.0,0.0,81,0.00,,,0.00,0,Wunderground v.1.15,2013-04-07 08:19:00,
2013-04-07 04:25:00,38.7,33.4,30.10,NE,44,0.0,0.0,81,0.00,,,0.00,0,Wunderground v.1.15,2013-04-07 08:25:00,
2013-04-07 04:31:00,38.6,33.3,30.10,NE,46,0.0,0.0,81,0.00,,,0.00,0,Wunderground v.1.15,2013-04-07 08:31:00,
2013-04-07 04:36:00,38.6,33.3,30.10,NE,45,0.0,0.0,81,0.00,,,0.00,0,Wunderground v.1.15,2013-04-07 08:36:00,
2013-04-07 04:41:00,38.5,33.2,30.09,NE,45,0.0,0.0,81,0.00,,,0.00,0,Wunderground v.1.15,2013-04-07 08:41:00,
2013-04-07 04:46:00,38.2,32.6,30.09,NE,46,0.0,0.0,80,0.00,,,0.00,0,Wunderground v.1.15,2013-04-07 08:46:00,
2013-04-07 04:52:00,38.0,32.7,30.09,NE,46,0.0,0.0,81,0.00,,,0.00,0,Wunderground v.1.15,2013-04-07 08:52:00,
2013-04-07 04:58:00,37.6,32.9,30.09,NE,47,0.0,0.0,83,0.00,,,0.00,0,Wunderground v.1.15,2013-04-07 08:58:00,
2013-04-07 05:03:00,37.3,32.6,30.09,NE,43,0.0,0.0,83,0.00,,,0.00,0,Wunderground v.1.15,2013-04-07 09:03:00,
2013-04-07 05:08:00,37.0,32.3,30.09,NE,44,0.0,0.0,83,0.00,,,0.00,0,Wunderground v.1.15,2013-04-07 09:08:00,
2013-04-07 05:13:00,36.7,32.0,30.09,NE,46,0.0,0.0,83,0.00,,,0.00,0,Wunderground v.1.15,2013-04-07 09:13:00,
2013-04-07 05:19:00,36.2,31.8,30.09,NE,44,0.0,0.0,84,0.00,,,0.00,0,Wunderground v.1.15,2013-04-07 09:19:00,
2013-04-07 05:25:00,35.8,31.4,30.09,NE,49,0.0,0.0,84,0.00,,,0.00,0,Wunderground v.1.15,2013-04-07 09:25:00,
2013-04-07 05:31:00,35.5,31.4,30.09,NE,46,0.0,0.0,85,0.00,,,0.00,0,Wunderground v.1.15,2013-04-07 09:31:00,
2013-04-07 05:36:00,35.1,30.8,30.09,NE,46,0.0,0.0,84,0.00,,,0.00,0,Wunderground v.1.15,2013-04-07 09:36:00,
2013-04-07 05:41:00,34.9,30.8,30.09,NE,44,0.0,0.0,85,0.00,,,0.00,0,Wunderground v.1.15,2013-04-07 09:41:00,
2013-04-07 05:46:00,34.9,31.1,30.09,NE,45,0.0,0.0,86,0.00,,,0.00,0,Wunderground v.1.15,2013-04-07 09:46:00,
2013-04-07 05:52:00,34.9,31.1,30.09,NE,46,0.0,0.0,86,0.00,,,0.00,0,Wunderground v.1.15,2013-04-07 09:52:00,
2013-04-07 05:58:00,35.0,30.9,30.08,NE,42,0.0,0.0,85,0.00,,,0.00,0,Wunderground v.1.15,2013-04-07 09:58:00,
2013-04-07 06:03:00,35.0,30.9,30.09,NE,47,0.0,2.0,85,0.00,,,0.00,0,Wunderground v.1.15,2013-04-07 10:03:00,
2013-04-07 06:09:00,35.0,30.1,30.09,NE,48,1.0,2.0,82,0.00,,,0.00,0,Wunderground v.1.15,2013-04-07 10:09:00,
2013-04-07 06:14:00,35.1,30.5,30.09,SE,133,1.0,2.0,83,0.00,,,0.00,0,Wunderground v.1.15,2013-04-07 10:14:00,
2013-04-07 06:20:00,35.2,30.0,30.09,SE,133,1.0,1.0,81,0.00,,,0.00,0,Wunderground v.1.15,2013-04-07 10:20:00,
2013-04-07 06:25:00,35.3,30.4,30.09,SE,134,1.0,2.0,82,0.00,,,0.00,0,Wunderground v.1.15,2013-04-07 10:25:00,
2013-04-07 06:31:00,35.5,31.4,30.09,SE,140,1.0,2.0,85,0.00,,,0.00,0,Wunderground v.1.15,2013-04-07 10:31:00,
2013-04-07 06:36:00,35.5,30.5,30.09,SE,140,1.0,3.0,82,0.00,,,0.00,0,Wunderground v.1.15,2013-04-07 10:36:00,
2013-04-07 06:41:00,35.5,30.8,30.09,SE,141,1.0,1.0,83,0.00,,,0.00,0,Wunderground v.1.15,2013-04-07 10:41:00,
2013-04-07 06:46:00,35.3,30.7,30.09,SE,143,0.0,1.0,83,0.00,,,0.00,0,Wunderground v.1.15,2013-04-07 10:46:00,
2013-04-07 06:52:00,35.1,30.5,30.09,SE,139,0.0,2.0,83,0.00,,,0.00,7,Wunderground v.1.15,2013-04-07 10:52:00,
2013-04-07 06:58:00,35.0,30.7,30.09,SE,142,1.0,2.0,84,0.00,,,0.00,11,Wunderground v.1.15,2013-04-07 10:58:00,
2013-04-07 07:03:00,35.0,30.9,30.08,SE,140,1.0,1.0,85,0.00,,,0.00,14,Wunderground v.1.15,2013-04-07 11:03:00,
2013-04-07 07:08:00,35.0,31.2,30.08,SE,140,0.0,1.0,86,0.00,,,0.00,16,Wunderground v.1.15,2013-04-07 11:08:00,
2013-04-07 07:14:00,35.0,30.9,30.08,SE,143,0.0,0.0,85,0.00,,,0.00,19,Wunderground v.1.15,2013-04-07 11:14:00,
2013-04-07 07:19:00,35.0,30.9,30.08,SE,139,0.0,0.0,85,0.00,,,0.00,21,Wunderground v.1.15,2013-04-07 11:19:00,
2013-04-07 07:24:00,35.1,31.0,30.08,SE,142,0.0,0.0,85,0.00,,,0.00,25,Wunderground v.1.15,2013-04-07 11:24:00,
2013-04-07 07:30:00,35.3,31.5,30.09,SE,143,0.0,2.0,86,0.00,,,0.00,28,Wunderground v.1.15,2013-04-07 11:30:00,
2013-04-07 07:36:00,35.5,31.1,30.09,SE,141,1.0,3.0,84,0.00,,,0.00,33,Wunderground v.1.15,2013-04-07 11:36:00,
2013-04-07 07:41:00,35.7,31.0,30.09,SE,140,2.0,3.0,83,0.00,,,0.00,37,Wunderground v.1.15,2013-04-07 11:41:00,
2013-04-07 07:47:00,35.9,30.6,30.09,SE,143,2.0,3.0,81,0.00,,,0.00,42,Wunderground v.1.15,2013-04-07 11:47:00,
2013-04-07 07:52:00,36.2,30.9,30.09,SSE,156,2.0,3.0,81,0.00,,,0.00,49,Wunderground v.1.15,2013-04-07 11:52:00,
2013-04-07 07:58:00,36.5,31.2,30.09,SSE,159,3.0,3.0,81,0.00,,,0.00,70,Wunderground v.1.15,2013-04-07 11:58:00,
2013-04-07 08:04:00,36.9,31.3,30.09,SSE,161,3.0,3.0,80,0.00,,,0.00,86,Wunderground v.1.15,2013-04-07 12:04:00,
2013-04-07 08:10:00,37.2,31.3,30.09,SSE,160,2.0,2.0,79,0.00,,,0.00,65,Wunderground v.1.15,2013-04-07 12:10:00,
2013-04-07 08:17:00,37.8,32.8,30.09,SSE,163,0.0,2.0,82,0.00,,,0.00,74,Wunderground v.1.15,2013-04-07 12:17:00,
2013-04-07 08:22:00,38.0,32.7,30.09,SSE,165,1.0,3.0,81,0.00,,,0.00,81,Wunderground v.1.15,2013-04-07 12:22:00,
2013-04-07 08:28:00,38.2,32.6,30.09,SSE,162,1.0,3.0,80,0.00,,,0.00,86,Wunderground v.1.15,2013-04-07 12:28:00,
2013-04-07 08:33:00,38.5,32.9,30.09,SSE,161,1.0,1.0,80,0.00,,,0.00,93,Wunderground v.1.15,2013-04-07 12:33:00,
2013-04-07 08:38:00,38.7,31.8,30.09,SSE,159,0.0,2.0,76,0.00,,,0.00,109,Wunderground v.1.15,2013-04-07 12:38:00,
2013-04-07 08:44:00,39.0,30.4,30.08,SSE,163,0.0,1.0,71,0.00,,,0.00,130,Wunderground v.1.15,2013-04-07 12:44:00,
2013-04-07 08:49:00,39.4,31.5,30.08,SSE,162,0.0,1.0,73,0.00,,,0.00,95,Wunderground v.1.15,2013-04-07 12:49:00,
2013-04-07 08:54:00,39.8,31.5,30.08,SSE,160,0.0,0.0,72,0.00,,,0.00,102,Wunderground v.1.15,2013-04-07 12:54:00,
2013-04-07 08:59:00,40.0,30.6,30.08,SSE,162,0.0,0.0,69,0.00,,,0.00,141,Wunderground v.1.15,2013-04-07 12:59:00,
2013-04-07 09:05:00,40.4,31.0,30.08,SSE,163,0.0,0.0,69,0.00,,,0.00,107,Wunderground v.1.15,2013-04-07 13:05:00,
2013-04-07 09:11:00,40.7,31.0,30.08,SSE,161,0.0,0.0,68,0.00,,,0.00,86,Wunderground v.1.15,2013-04-07 13:11:00,
2013-04-07 09:17:00,41.1,32.8,30.07,SSE,159,0.0,0.0,72,0.00,,,0.00,125,Wunderground v.1.15,2013-04-07 13:17:00,
2013-04-07 09:23:00,41.4,32.0,30.07,SSE,159,0.0,0.0,69,0.00,,,0.00,155,Wunderground v.1.15,2013-04-07 13:23:00,
2013-04-07 09:28:00,41.8,33.1,30.07,SSE,159,0.0,0.0,71,0.00,,,0.00,204,Wunderground v.1.15,2013-04-07 13:28:00,
2013-04-07 09:34:00,42.3,32.5,30.07,SSE,161,0.0,0.0,68,0.00,,,0.00,172,Wunderground v.1.15,2013-04-07 13:34:00,
2013-04-07 09:39:00,42.6,32.4,30.07,SSE,162,0.0,0.0,67,0.00,,,0.00,185,Wunderground v.1.15,2013-04-07 13:39:00,
2013-04-07 09:45:00,43.1,33.3,30.07,SSE,164,0.0,0.0,68,0.00,,,0.00,172,Wunderground v.1.15,2013-04-07 13:45:00,
2013-04-07 09:50:00,43.4,32.8,30.07,SSE,159,0.0,0.0,66,0.00,,,0.00,179,Wunderground v.1.15,2013-04-07 13:50:00,
2013-04-07 09:56:00,43.7,32.7,30.06,SSE,160,0.0,0.0,65,0.00,,,0.00,167,Wunderground v.1.15,2013-04-07 13:56:00,
2013-04-07 10:01:00,43.9,33.3,30.06,SSE,162,0.0,0.0,66,0.00,,,0.00,174,Wunderground v.1.15,2013-04-07 14:01:00,
2013-04-07 10:06:00,44.2,33.9,30.06,SSE,160,0.0,0.0,67,0.00,,,0.00,183,Wunderground v.1.15,2013-04-07 14:06:00,
2013-04-07 10:11:00,44.5,33.5,30.06,SSE,162,0.0,0.0,65,0.00,,,0.00,200,Wunderground v.1.15,2013-04-07 14:11:00,
2013-04-07 10:17:00,44.9,33.5,30.05,SSE,159,0.0,0.0,64,0.00,,,0.00,241,Wunderground v.1.15,2013-04-07 14:17:00,
2013-04-07 10:23:00,45.4,33.9,30.05,SSE,163,0.0,0.0,64,0.00,,,0.00,299,Wunderground v.1.15,2013-04-07 14:23:00,
2013-04-07 10:28:00,46.1,33.8,30.05,SSE,162,0.0,0.0,62,0.00,,,0.00,276,Wunderground v.1.15,2013-04-07 14:28:00,
2013-04-07 10:33:00,46.7,34.0,30.05,SSE,161,0.0,0.0,61,0.00,,,0.00,258,Wunderground v.1.15,2013-04-07 14:33:00,
2013-04-07 10:38:00,47.2,35.2,30.05,SSE,159,0.0,3.0,63,0.00,,,0.00,258,Wunderground v.1.15,2013-04-07 14:38:00,
2013-04-07 10:44:00,47.9,34.7,30.05,SSE,163,1.0,3.0,60,0.00,,,0.00,227,Wunderground v.1.15,2013-04-07 14:44:00,
2013-04-07 10:49:00,48.5,36.1,30.05,SSE,161,1.0,3.0,62,0.00,,,0.00,155,Wunderground v.1.15,2013-04-07 14:49:00,
2013-04-07 10:54:00,48.9,36.0,30.04,SSW,196,2.0,3.0,61,0.00,,,0.00,114,Wunderground v.1.15,2013-04-07 14:54:00,
2013-04-07 11:00:00,49.4,36.5,30.04,SSW,192,2.0,2.0,61,0.00,,,0.00,156,Wunderground v.1.15,2013-04-07 15:00:00,
2013-04-07 11:06:00,49.8,36.9,30.04,SSW,202,3.0,5.0,61,0.00,,,0.00,218,Wunderground v.1.15,2013-04-07 15:06:00,
2013-04-07 11:12:00,50.3,37.4,30.04,South,187,3.0,4.0,61,0.00,,,0.00,281,Wunderground v.1.15,2013-04-07 15:12:00,
2013-04-07 11:18:00,51.0,35.8,30.04,SSW,192,4.0,6.0,56,0.00,,,0.00,236,Wunderground v.1.15,2013-04-07 15:18:00,
2013-04-07 11:24:00,51.7,37.4,30.03,South,186,5.0,7.0,58,0.00,,,0.00,234,Wunderground v.1.15,2013-04-07 15:24:00,
2013-04-07 11:30:00,52.1,37.3,30.03,SSW,203,5.0,5.0,57,0.00,,,0.00,283,Wunderground v.1.15,2013-04-07 15:30:00,
2013-04-07 11:36:00,52.7,38.3,30.03,SSW,212,4.0,5.0,58,0.00,,,0.00,304,Wunderground v.1.15,2013-04-07 15:36:00,
2013-04-07 11:42:00,53.4,39.0,30.03,SSW,197,4.0,4.0,58,0.00,,,0.00,320,Wunderground v.1.15,2013-04-07 15:42:00,
2013-04-07 11:47:00,53.8,38.0,30.02,SSW,208,4.0,7.0,55,0.00,,,0.00,315,Wunderground v.1.15,2013-04-07 15:47:00,
2013-04-07 11:53:00,54.2,38.4,30.02,WSW,238,3.0,3.0,55,0.00,,,0.00,334,Wunderground v.1.15,2013-04-07 15:53:00,
2013-04-07 11:59:00,54.6,38.3,30.02,SSW,213,4.0,6.0,54,0.00,,,0.00,403,Wunderground v.1.15,2013-04-07 15:59:00,
2013-04-07 12:05:00,54.9,38.1,30.02,SW,217,5.0,7.0,53,0.00,,,0.00,278,Wunderground v.1.15,2013-04-07 16:05:00,
2013-04-07 12:10:00,55.3,38.4,30.01,North,360,4.0,8.0,53,0.00,,,0.00,675,Wunderground v.1.15,2013-04-07 16:10:00,
2013-04-07 12:15:00,55.8,38.4,30.01,WSW,248,4.0,8.0,52,0.00,,,0.00,772,Wunderground v.1.15,2013-04-07 16:15:00,
2013-04-07 12:21:00,56.7,41.2,30.01,SSW,203,4.0,7.0,56,0.00,,,0.00,700,Wunderground v.1.15,2013-04-07 16:21:00,
2013-04-07 12:26:00,57.5,41.0,30.00,SSW,200,6.0,9.0,54,0.00,,,0.00,788,Wunderground v.1.15,2013-04-07 16:26:00,
2013-04-07 12:32:00,58.2,42.1,30.00,South,171,7.0,14.0,55,0.00,,,0.00,751,Wunderground v.1.15,2013-04-07 16:32:00,
2013-04-07 12:38:00,59.2,42.1,29.99,South,169,7.0,14.0,53,0.00,,,0.00,817,Wunderground v.1.15,2013-04-07 16:38:00,
2013-04-07 12:43:00,60.1,43.4,29.99,South,171,9.0,14.0,54,0.00,,,0.00,898,Wunderground v.1.15,2013-04-07 16:43:00,
2013-04-07 12:48:00,60.7,43.0,29.99,South,171,9.0,14.0,52,0.00,,,0.00,911,Wunderground v.1.15,2013-04-07 16:48:00,
2013-04-07 12:54:00,61.5,43.7,29.98,South,190,8.0,10.0,52,0.00,,,0.00,496,Wunderground v.1.15,2013-04-07 16:54:00,
2013-04-07 13:00:00,62.0,43.1,29.98,SSE,150,7.0,8.0,50,0.00,,,0.00,487,Wunderground v.1.15,2013-04-07 17:00:00,
2013-04-07 13:06:00,62.3,43.9,29.97,SW,223,6.0,8.0,51,0.00,,,0.00,343,Wunderground v.1.15,2013-04-07 17:06:00,
2013-04-07 13:12:00,62.7,43.8,29.97,SSW,196,5.0,8.0,50,0.00,,,0.00,916,Wunderground v.1.15,2013-04-07 17:12:00,
2013-04-07 13:17:00,63.4,45.5,29.96,SE,140,5.0,8.0,52,0.00,,,0.00,851,Wunderground v.1.15,2013-04-07 17:17:00,
2013-04-07 13:23:00,63.9,43.3,29.96,South,173,6.0,8.0,47,0.00,,,0.00,789,Wunderground v.1.15,2013-04-07 17:23:00,
2013-04-07 13:28:00,64.2,45.7,29.96,SSE,151,6.0,9.0,51,0.00,,,0.00,921,Wunderground v.1.15,2013-04-07 17:28:00,
2013-04-07 13:34:00,64.9,45.3,29.95,South,169,8.0,11.0,49,0.00,,,0.00,821,Wunderground v.1.15,2013-04-07 17:34:00,
2013-04-07 13:39:00,65.2,46.1,29.95,South,186,7.0,11.0,50,0.00,,,0.00,468,Wunderground v.1.15,2013-04-07 17:39:00,
2013-04-07 13:45:00,65.3,45.1,29.94,South,172,5.0,9.0,48,0.00,,,0.00,629,Wunderground v.1.15,2013-04-07 17:45:00,
2013-04-07 13:50:00,65.7,47.6,29.94,SSE,153,5.0,5.0,52,0.00,,,0.00,833,Wunderground v.1.15,2013-04-07 17:50:00,
2013-04-07 13:55:00,66.5,46.7,29.94,South,176,6.0,11.0,49,0.00,,,0.00,875,Wunderground v.1.15,2013-04-07 17:55:00,
2013-04-07 14:00:00,67.4,45.9,29.94,SSW,198,6.0,6.0,46,0.00,,,0.00,1151,Wunderground v.1.15,2013-04-07 18:00:00,
2013-04-07 14:06:00,67.8,46.8,29.94,SSE,159,5.0,6.0,47,0.00,,,0.00,598,Wunderground v.1.15,2013-04-07 18:06:00,
2013-04-07 14:11:00,68.2,46.6,29.94,SSE,151,4.0,8.0,46,0.00,,,0.00,1007,Wunderground v.1.15,2013-04-07 18:11:00,
2013-04-07 14:17:00,68.2,45.4,29.93,SE,143,3.0,8.0,44,0.00,,,0.00,441,Wunderground v.1.15,2013-04-07 18:17:00,
2013-04-07 14:23:00,68.3,46.7,29.93,SE,143,2.0,4.0,46,0.00,,,0.00,327,Wunderground v.1.15,2013-04-07 18:23:00,
2013-04-07 14:29:00,68.1,45.4,29.93,SE,138,3.0,7.0,44,0.00,,,0.00,299,Wunderground v.1.15,2013-04-07 18:29:00,
2013-04-07 14:35:00,68.1,45.9,29.93,NE,54,3.0,6.0,45,0.00,,,0.00,369,Wunderground v.1.15,2013-04-07 18:35:00,
2013-04-07 14:41:00,67.8,45.7,29.92,ENE,64,3.0,5.0,45,0.00,,,0.00,350,Wunderground v.1.15,2013-04-07 18:41:00,
2013-04-07 14:47:00,67.8,47.9,29.92,ENE,71,4.0,5.0,49,0.00,,,0.00,918,Wunderground v.1.15,2013-04-07 18:47:00,
2013-04-07 14:53:00,68.2,46.6,29.92,East,99,5.0,10.0,46,0.00,,,0.00,861,Wunderground v.1.15,2013-04-07 18:53:00,
2013-04-07 14:59:00,69.0,45.6,29.92,South,181,4.0,10.0,43,0.00,,,0.00,833,Wunderground v.1.15,2013-04-07 18:59:00,
2013-04-07 15:05:00,69.3,45.2,29.91,ENE,72,2.0,5.0,42,0.00,,,0.00,722,Wunderground v.1.15,2013-04-07 19:05:00,
2013-04-07 15:10:00,69.8,47.5,29.91,North,360,3.0,7.0,45,0.00,,,0.00,707,Wunderground v.1.15,2013-04-07 19:10:00,
2013-04-07 15:16:00,71.0,48.0,29.91,WNW,302,8.0,15.0,44,0.00,,,0.00,766,Wunderground v.1.15,2013-04-07 19:16:00,
2013-04-07 15:22:00,71.8,47.5,29.91,WSW,248,13.0,13.0,42,0.00,,,0.00,513,Wunderground v.1.15,2013-04-07 19:22:00,
2013-04-07 15:28:00,72.4,49.3,29.90,West,267,10.0,18.0,44,0.00,,,0.00,700,Wunderground v.1.15,2013-04-07 19:28:00,
2013-04-07 15:34:00,73.1,49.3,29.90,WSW,256,6.0,9.0,43,0.00,,,0.00,703,Wunderground v.1.15,2013-04-07 19:34:00,
2013-04-07 15:39:00,73.7,47.9,29.90,SW,234,7.0,12.0,40,0.00,,,0.00,626,Wunderground v.1.15,2013-04-07 19:39:00,
2013-04-07 15:45:00,74.0,49.4,29.90,SW,215,9.0,15.0,42,0.00,,,0.00,638,Wunderground v.1.15,2013-04-07 19:45:00,
2013-04-07 15:51:00,73.3,47.5,29.90,SW,226,11.0,20.0,40,0.00,,,0.00,817,Wunderground v.1.15,2013-04-07 19:51:00,
2013-04-07 15:57:00,72.5,47.5,29.90,SW,232,10.0,20.0,41,0.00,,,0.00,297,Wunderground v.1.15,2013-04-07 19:57:00,
2013-04-07 16:02:00,72.0,47.6,29.90,WSW,238,10.0,16.0,42,0.00,,,0.00,302,Wunderground v.1.15,2013-04-07 20:02:00,
2013-04-07 16:07:00,71.7,48.0,29.89,SW,226,10.0,16.0,43,0.00,,,0.00,246,Wunderground v.1.15,2013-04-07 20:07:00,
2013-04-07 16:13:00,71.3,47.0,29.89,WSW,243,11.0,20.0,42,0.00,,,0.00,279,Wunderground v.1.15,2013-04-07 20:13:00,
2013-04-07 16:19:00,71.1,47.5,29.90,SW,232,12.0,20.0,43,0.00,,,0.00,796,Wunderground v.1.15,2013-04-07 20:19:00,
2013-04-07 16:25:00,71.7,48.6,29.90,SW,221,9.0,13.0,44,0.00,,,0.00,269,Wunderground v.1.15,2013-04-07 20:25:00,
2013-04-07 16:31:00,71.5,47.2,29.90,WSW,252,8.0,8.0,42,0.00,,,0.00,343,Wunderground v.1.15,2013-04-07 20:31:00,
2013-04-07 16:37:00,71.6,47.9,29.90,West,259,9.0,19.0,43,0.00,,,0.00,670,Wunderground v.1.15,2013-04-07 20:37:00,
2013-04-07 16:43:00,71.8,48.7,29.90,North,360,9.0,12.0,44,0.00,,,0.00,244,Wunderground v.1.15,2013-04-07 20:43:00,
2013-04-07 16:48:00,71.7,47.4,29.89,WSW,252,9.0,14.0,42,0.00,,,0.00,221,Wunderground v.1.15,2013-04-07 20:48:00,
2013-04-07 16:54:00,71.5,47.8,29.90,West,259,9.0,18.0,43,0.00,,,0.00,207,Wunderground v.1.15,2013-04-07 20:54:00,
2013-04-07 16:59:00,71.3,48.3,29.89,North,360,11.0,19.0,44,0.00,,,0.00,230,Wunderground v.1.15,2013-04-07 20:59:00,
2013-04-07 17:04:00,71.1,47.5,29.90,WSW,244,11.0,13.0,43,0.00,,,0.00,415,Wunderground v.1.15,2013-04-07 21:04:00,
2013-04-07 17:10:00,71.6,47.3,29.90,WSW,256,8.0,10.0,42,0.00,,,0.00,524,Wunderground v.1.15,2013-04-07 21:10:00,
2013-04-07 17:16:00,72.1,47.1,29.90,WSW,248,7.0,11.0,41,0.00,,,0.00,385,Wunderground v.1.15,2013-04-07 21:16:00,
2013-04-07 17:21:00,72.1,48.4,29.91,SW,230,8.0,10.0,43,0.00,,,0.00,237,Wunderground v.1.15,2013-04-07 21:21:00,
2013-04-07 17:26:00,71.7,48.0,29.91,WSW,253,11.0,17.0,43,0.00,,,0.00,195,Wunderground v.1.15,2013-04-07 21:26:00,
2013-04-07 17:32:00,71.2,47.6,29.91,SSW,209,12.0,12.0,43,0.00,,,0.00,360,Wunderground v.1.15,2013-04-07 21:32:00,
2013-04-07 17:38:00,71.1,48.1,29.91,SW,225,12.0,14.0,44,0.00,,,0.00,376,Wunderground v.1.15,2013-04-07 21:38:00,
2013-04-07 17:43:00,71.0,48.0,29.91,SSW,205,10.0,15.0,44,0.00,,,0.00,355,Wunderground v.1.15,2013-04-07 21:43:00,
2013-04-07 17:48:00,70.8,47.8,29.91,SSW,206,9.0,15.0,44,0.00,,,0.00,146,Wunderground v.1.15,2013-04-07 21:48:00,
2013-04-07 17:53:00,70.5,46.9,29.91,SSW,213,9.0,15.0,43,0.00,,,0.00,359,Wunderground v.1.15,2013-04-07 21:53:00,
2013-04-07 17:59:00,70.6,48.2,29.91,North,360,8.0,15.0,45,0.00,,,0.00,262,Wunderground v.1.15,2013-04-07 21:59:00,
2013-04-07 18:04:00,70.7,47.7,29.91,SW,221,7.0,10.0,44,0.00,,,0.00,244,Wunderground v.1.15,2013-04-07 22:04:00,
2013-04-07 18:09:00,70.8,48.4,29.91,SW,231,8.0,18.0,45,0.00,,,0.00,225,Wunderground v.1.15,2013-04-07 22:09:00,
2013-04-07 18:15:00,70.4,47.4,29.91,WSW,237,11.0,18.0,44,0.00,,,0.00,193,Wunderground v.1.15,2013-04-07 22:15:00,
2013-04-07 18:21:00,69.9,48.2,29.92,North,360,12.0,16.0,46,0.00,,,0.00,197,Wunderground v.1.15,2013-04-07 22:21:00,
2013-04-07 18:27:00,69.5,47.2,29.92,SSW,212,12.0,16.0,45,0.00,,,0.00,146,Wunderground v.1.15,2013-04-07 22:27:00,
2013-04-07 18:33:00,69.1,47.4,29.92,SW,234,10.0,11.0,46,0.00,,,0.00,76,Wunderground v.1.15,2013-04-07 22:33:00,
2013-04-07 18:39:00,68.8,47.2,29.92,SW,236,10.0,18.0,46,0.00,,,0.00,104,Wunderground v.1.15,2013-04-07 22:39:00,
2013-04-07 18:44:00,68.4,47.4,29.92,SW,229,10.0,11.0,47,0.00,,,0.00,86,Wunderground v.1.15,2013-04-07 22:44:00,
2013-04-07 18:50:00,67.8,46.8,29.92,West,279,9.0,11.0,47,0.00,,,0.00,70,Wunderground v.1.15,2013-04-07 22:50:00,
2013-04-07 18:56:00,67.5,47.1,29.92,North,360,8.0,11.0,48,0.00,,,0.00,44,Wunderground v.1.15,2013-04-07 22:56:00,
2013-04-07 19:01:00,67.0,46.7,29.92,SSW,211,9.0,14.0,48,0.00,,,0.00,37,Wunderground v.1.15,2013-04-07 23:01:00,
2013-04-07 19:07:00,66.6,46.8,29.92,West,261,11.0,14.0,49,0.00,,,0.00,32,Wunderground v.1.15,2013-04-07 23:07:00,
2013-04-07 19:13:00,66.2,47.0,29.92,West,259,8.0,11.0,50,0.00,,,0.00,28,Wunderground v.1.15,2013-04-07 23:13:00,
2013-04-07 19:19:00,65.6,47.0,29.92,WSW,238,6.0,11.0,51,0.00,,,0.00,21,Wunderground v.1.15,2013-04-07 23:19:00,
2013-04-07 19:24:00,65.0,46.4,29.92,SSW,200,7.0,8.0,51,0.00,,,0.00,16,Wunderground v.1.15,2013-04-07 23:24:00,
2013-04-07 19:30:00,64.5,47.0,29.92,WSW,243,7.0,7.0,53,0.00,,,0.00,11,Wunderground v.1.15,2013-04-07 23:30:00,
2013-04-07 19:36:00,63.9,46.4,29.92,SW,219,7.0,9.0,53,0.00,,,0.00,9,Wunderground v.1.15,2013-04-07 23:36:00,
2013-04-07 19:41:00,63.5,46.6,29.92,WSW,247,7.0,7.0,54,0.00,,,0.00,5,Wunderground v.1.15,2013-04-07 23:41:00,
2013-04-07 19:46:00,63.2,46.3,29.92,WSW,238,6.0,10.0,54,0.00,,,0.00,0,Wunderground v.1.15,2013-04-07 23:46:00,
2013-04-07 19:52:00,62.6,45.7,29.92,SW,219,7.0,13.0,54,0.00,,,0.00,0,Wunderground v.1.15,2013-04-07 23:52:00,
2013-04-07 19:57:00,62.5,46.1,29.93,WSW,241,7.0,13.0,55,0.00,,,0.00,0,Wunderground v.1.15,2013-04-07 23:57:00,
2013-04-07 20:03:00,61.9,46.0,29.93,SSW,207,5.0,7.0,56,0.00,,,0.00,0,Wunderground v.1.15,2013-04-08 00:03:00,
2013-04-07 20:09:00,61.3,45.9,29.93,SW,227,5.0,9.0,57,0.00,,,0.00,0,Wunderground v.1.15,2013-04-08 00:09:00,
2013-04-07 20:14:00,60.8,45.9,29.93,SSW,200,5.0,5.0,58,0.00,,,0.00,0,Wunderground v.1.15,2013-04-08 00:14:00,
2013-04-07 20:20:00,59.7,45.8,29.94,SSW,196,5.0,5.0,60,0.00,,,0.00,0,Wunderground v.1.15,2013-04-08 00:20:00,
2013-04-07 20:26:00,58.4,45.4,29.94,SW,218,7.0,9.0,62,0.00,,,0.00,0,Wunderground v.1.15,2013-04-08 00:26:00,
2013-04-07 20:31:00,57.3,45.2,29.94,SW,215,6.0,6.0,64,0.00,,,0.00,0,Wunderground v.1.15,2013-04-08 00:31:00,
2013-04-07 20:36:00,56.6,45.0,29.95,SSW,209,4.0,7.0,65,0.00,,,0.00,0,Wunderground v.1.15,2013-04-08 00:36:00,
2013-04-07 20:42:00,55.9,45.5,29.95,SSW,202,3.0,6.0,68,0.00,,,0.00,0,Wunderground v.1.15,2013-04-08 00:42:00,
2013-04-07 20:48:00,55.6,45.2,29.95,WNW,287,2.0,6.0,68,0.00,,,0.00,0,Wunderground v.1.15,2013-04-08 00:48:00,
2013-04-07 20:53:00,55.5,45.5,29.96,WNW,293,3.0,5.0,69,0.00,,,0.00,0,Wunderground v.1.15,2013-04-08 00:53:00,
2013-04-07 20:59:00,55.5,46.2,29.97,West,275,4.0,5.0,71,0.00,,,0.00,0,Wunderground v.1.15,2013-04-08 00:59:00,
2013-04-07 21:04:00,55.4,45.4,29.96,WNW,289,2.0,3.0,69,0.00,,,0.00,0,Wunderground v.1.15,2013-04-08 01:04:00,
2013-04-07 21:09:00,55.4,47.2,29.97,NNW,340,3.0,5.0,74,0.00,,,0.00,0,Wunderground v.1.15,2013-04-08 01:09:00,
2013-04-07 21:15:00,55.2,47.8,29.98,NW,322,5.0,9.0,76,0.00,,,0.00,0,Wunderground v.1.15,2013-04-08 01:15:00,
2013-04-07 21:21:00,55.2,47.8,29.98,NW,313,8.0,13.0,76,0.00,,,0.00,0,Wunderground v.1.15,2013-04-08 01:21:00,
2013-04-07 21:26:00,55.8,46.9,29.98,North,360,7.0,13.0,72,0.00,,,0.00,0,Wunderground v.1.15,2013-04-08 01:26:00,
2013-04-07 21:32:00,56.7,48.1,29.98,NNW,332,4.0,5.0,73,0.00,,,0.00,0,Wunderground v.1.15,2013-04-08 01:32:00,
2013-04-07 21:38:00,57.4,48.1,29.99,NW,325,5.0,10.0,71,0.00,,,0.00,0,Wunderground v.1.15,2013-04-08 01:38:00,
2013-04-07 21:43:00,58.3,48.6,29.99,NNW,345,7.0,7.0,70,0.00,,,0.00,0,Wunderground v.1.15,2013-04-08 01:43:00,
2013-04-07 21:49:00,58.9,48.4,29.99,NW,307,6.0,9.0,68,0.00,,,0.00,0,Wunderground v.1.15,2013-04-08 01:49:00,
2013-04-07 21:55:00,59.0,48.4,29.99,NW,317,6.0,8.0,68,0.00,,,0.00,0,Wunderground v.1.15,2013-04-08 01:55:00,
2013-04-07 22:00:00,58.7,48.6,29.99,NW,321,4.0,4.0,69,0.00,,,0.00,0,Wunderground v.1.15,2013-04-08 02:00:00,
2013-04-07 22:06:00,58.1,48.4,29.99,NW,321,2.0,4.0,70,0.00,,,0.00,0,Wunderground v.1.15,2013-04-08 02:06:00,
2013-04-07 22:12:00,57.2,48.3,29.99,NW,320,2.0,2.0,72,0.00,,,0.00,0,Wunderground v.1.15,2013-04-08 02:12:00,
2013-04-07 22:18:00,56.4,48.2,29.99,NW,320,1.0,2.0,74,0.00,,,0.00,0,Wunderground v.1.15,2013-04-08 02:18:00,
2013-04-07 22:24:00,55.4,48.0,29.99,NW,322,2.0,3.0,76,0.00,,,0.00,0,Wunderground v.1.15,2013-04-08 02:24:00,
2013-04-07 22:29:00,54.4,47.7,29.99,NNW,336,3.0,5.0,78,0.00,,,0.00,0,Wunderground v.1.15,2013-04-08 02:29:00,
2013-04-07 22:35:00,53.8,47.4,29.99,NNW,336,5.0,7.0,79,0.00,,,0.00,0,Wunderground v.1.15,2013-04-08 02:35:00,
2013-04-07 22:40:00,53.4,47.4,29.98,NW,313,5.0,5.0,80,0.00,,,0.00,0,Wunderground v.1.15,2013-04-08 02:40:00,
2013-04-07 22:45:00,52.8,47.8,29.98,NW,317,4.0,5.0,83,0.00,,,0.00,0,Wunderground v.1.15,2013-04-08 02:45:00,
2013-04-07 22:51:00,52.5,47.5,29.98,NW,311,4.0,6.0,83,0.00,,,0.00,0,Wunderground v.1.15,2013-04-08 02:51:00,
2013-04-07 22:57:00,52.4,47.7,29.98,NW,311,4.0,6.0,84,0.00,,,0.00,0,Wunderground v.1.15,2013-04-08 02:57:00,
2013-04-07 23:03:00,52.2,47.5,29.98,NW,313,1.0,2.0,84,0.00,,,0.00,0,Wunderground v.1.15,2013-04-08 03:03:00,
2013-04-07 23:09:00,52.1,47.4,29.98,NW,314,1.0,3.0,84,0.00,,,0.00,0,Wunderground v.1.15,2013-04-08 03:09:00,
2013-04-07 23:14:00,52.0,47.6,29.98,NW,312,1.0,1.0,85,0.00,,,0.00,0,Wunderground v.1.15,2013-04-08 03:14:00,
2013-04-07 23:20:00,51.9,47.5,29.99,NW,311,0.0,0.0,85,0.00,,,0.00,0,Wunderground v.1.15,2013-04-08 03:20:00,
2013-04-07 23:25:00,51.9,47.5,29.98,NW,311,0.0,0.0,85,0.00,,,0.00,0,Wunderground v.1.15,2013-04-08 03:25:00,
2013-04-07 23:31:00,51.7,47.3,29.98,NW,314,0.0,1.0,85,0.00,,,0.00,0,Wunderground v.1.15,2013-04-08 03:31:00,
2013-04-07 23:37:00,51.5,47.1,29.99,NW,312,0.0,1.0,85,0.00,,,0.00,0,Wunderground v.1.15,2013-04-08 03:37:00,
2013-04-07 23:43:00,51.2,47.2,29.98,SW,234,2.0,5.0,86,0.00,,,0.00,0,Wunderground v.1.15,2013-04-08 03:43:00,
2013-04-07 23:48:00,51.1,47.4,29.98,SW,230,2.0,5.0,87,0.00,,,0.00,0,Wunderground v.1.15,2013-04-08 03:48:00,
2013-04-07 23:53:00,51.1,47.4,29.98,SW,233,2.0,3.0,87,0.00,,,0.00,0,Wunderground v.1.15,2013-04-08 03:53:00,
2013-04-07 23:59:00,51.1,47.4,29.98,WSW,246,2.0,4.0,87,0.00,,,0.00,0,Wunderground v.1.15,2013-04-08 03:59:00,